Yorktown Heights, NY (10598)

11:15 PM EST on January 24, 2015 (GMT -0500)
Near Crompond School | Change Station
CLOSE
Current Station
Personal Weather Station
Location: Yorktown Heights, NY
Elevation: 581 ft
Nearby Weather Stations
Active Advisory: Special Statement Active Notice: Record Report

Elev 581 ft 41.31 °N, 73.81 °W | Updated 23 seconds ago

Partly Cloudy
Partly Cloudy
32.0 °F
Feels Like 32 °F
N
0.0
Wind Variable Wind from WSW
Gusts 0.0 mph

Today
High -- | Low -- °F
--% Chance of Precip.
Yesterday
High -- | Low -- °F
Precip. -- in
7:13 AM 5:01 PM
Waxing Crescent, 28% visible
Pressure 29.44 in
Visibility 10.0 miles
Clouds Mostly Cloudy 7000 ft
Windchill 32 °F
Dew Point 23 °F
Humidity 70%
Rainfall 0.07 in
Snow Depth Not available.
UV 0 out of 12
Pollen .10 out of 12
Air Quality Not available.
Flu Activity Not available.
METAR KHPN 250356Z 29012G24KT 10SM BKN070 01/M05 A2942 RMK AO2 SLP970 T00061050 $

More Conditions Fewer Conditions

Pressure 29.44 in
Visibility 10.0 miles
Clouds Mostly Cloudy 7000 ft
Windchill 32 °F
Dew Point 23 °F
Humidity 70%
Rainfall 0.07 in
Snow Depth Not available.
UV 0 out of 12
Pollen .10 out of 12
Air Quality Not available.
Flu Activity Not available.
METAR KHPN 250356Z 29012G24KT 10SM BKN070 01/M05 A2942 RMK AO2 SLP970 T00061050 $

More Conditions Fewer Conditions

10-Day Weather Forecast

Almanac

Astronomy

Jan. 24, 2015 Rise Set
Actual Time
Civil Twilight
Nautical Twilight
Astronomical Twilight
Moon
Length of Visible Light
Length of Day
Tomorrow will be .
, % of the Moon is Illuminated

Today's Extremes

State Highs State Lows

Community

WunderPhotos

Upload Photos

1,789,838 photos uploaded!

WunderBlogs® & News

Nearby

Air Quality

  Air Quality AQ Index Pollutant
Not available.

Snow Depth

Station Depth Elevation

Earthquake Activity

City Distance Mag. Time & Date
Minimum magnitude displayed is 2.5.

Coastal Water Temperatures

Place Temperature

Nearby Weather Stations